sensor_id;sensor_type;location;lat;lon;timestamp;P1;P2;P0
49708;PMS5003;35601;55.902;13.606;2024-03-22T00:02:25;34;29;
49708;PMS5003;35601;55.902;13.606;2024-03-22T00:04:50;26;25;
49708;PMS5003;35601;55.902;13.606;2024-03-22T00:07:15;29;26;
49708;PMS5003;35601;55.902;13.606;2024-03-22T00:09:41;17;15;
49708;PMS5003;35601;55.902;13.606;2024-03-22T00:12:06;26;20;
49708;PMS5003;35601;55.902;13.606;2024-03-22T00:14:31;16;13;
49708;PMS5003;35601;55.902;13.606;2024-03-22T00:16:56;17;16;
49708;PMS5003;35601;55.902;13.606;2024-03-22T00:19:21;16;14;
49708;PMS5003;35601;55.902;13.606;2024-03-22T00:21:47;13;11;
49708;PMS5003;35601;55.902;13.606;2024-03-22T00:24:12;13;11;
49708;PMS5003;35601;55.902;13.606;2024-03-22T00:26:37;12;10;
49708;PMS5003;35601;55.902;13.606;2024-03-22T00:29:02;14;9;
49708;PMS5003;35601;55.902;13.606;2024-03-22T00:31:28;20;16;
49708;PMS5003;35601;55.902;13.606;2024-03-22T00:33:53;14;11;
49708;PMS5003;35601;55.902;13.606;2024-03-22T00:36:18;16;13;
49708;PMS5003;35601;55.902;13.606;2024-03-22T00:38:44;24;21;
49708;PMS5003;35601;55.902;13.606;2024-03-22T00:41:09;21;16;
49708;PMS5003;35601;55.902;13.606;2024-03-22T00:43:34;13;13;
49708;PMS5003;35601;55.902;13.606;2024-03-22T00:46:00;15;13;
49708;PMS5003;35601;55.902;13.606;2024-03-22T00:48:25;12;10;
49708;PMS5003;35601;55.902;13.606;2024-03-22T00:50:51;12;10;
49708;PMS5003;35601;55.902;13.606;2024-03-22T00:53:16;12;10;
49708;PMS5003;35601;55.902;13.606;2024-03-22T00:55:41;16;12;
49708;PMS5003;35601;55.902;13.606;2024-03-22T00:58:07;8;8;
49708;PMS5003;35601;55.902;13.606;2024-03-22T01:00:32;13;12;
49708;PMS5003;35601;55.902;13.606;2024-03-22T01:02:57;12;7;
49708;PMS5003;35601;55.902;13.606;2024-03-22T01:05:23;11;9;
49708;PMS5003;35601;55.902;13.606;2024-03-22T01:07:49;13;10;
49708;PMS5003;35601;55.902;13.606;2024-03-22T01:10:14;8;7;
49708;PMS5003;35601;55.902;13.606;2024-03-22T01:12:39;11;7;
49708;PMS5003;35601;55.902;13.606;2024-03-22T01:15:05;10;8;
49708;PMS5003;35601;55.902;13.606;2024-03-22T01:17:30;9;8;
49708;PMS5003;35601;55.902;13.606;2024-03-22T01:19:55;8;6;
49708;PMS5003;35601;55.902;13.606;2024-03-22T01:22:21;9;8;
49708;PMS5003;35601;55.902;13.606;2024-03-22T01:24:47;10;7;
49708;PMS5003;35601;55.902;13.606;2024-03-22T01:27:13;13;11;
49708;PMS5003;35601;55.902;13.606;2024-03-22T01:29:38;11;10;
49708;PMS5003;35601;55.902;13.606;2024-03-22T01:32:04;13;10;
49708;PMS5003;35601;55.902;13.606;2024-03-22T01:34:29;12;10;
49708;PMS5003;35601;55.902;13.606;2024-03-22T01:36:55;18;14;
49708;PMS5003;35601;55.902;13.606;2024-03-22T01:39:21;13;11;
49708;PMS5003;35601;55.902;13.606;2024-03-22T01:41:46;20;15;
49708;PMS5003;35601;55.902;13.606;2024-03-22T01:44:11;20;13;
49708;PMS5003;35601;55.902;13.606;2024-03-22T01:46:36;20;17;
49708;PMS5003;35601;55.902;13.606;2024-03-22T01:49:02;20;17;
49708;PMS5003;35601;55.902;13.606;2024-03-22T01:51:28;15;14;
49708;PMS5003;35601;55.902;13.606;2024-03-22T01:53:53;19;15;
49708;PMS5003;35601;55.902;13.606;2024-03-22T01:56:19;19;15;
49708;PMS5003;35601;55.902;13.606;2024-03-22T01:58:44;20;16;
49708;PMS5003;35601;55.902;13.606;2024-03-22T02:01:09;18;14;
49708;PMS5003;35601;55.902;13.606;2024-03-22T02:03:34;15;15;
49708;PMS5003;35601;55.902;13.606;2024-03-22T02:06:00;26;17;
49708;PMS5003;35601;55.902;13.606;2024-03-22T02:08:26;15;15;
49708;PMS5003;35601;55.902;13.606;2024-03-22T02:10:52;14;14;
49708;PMS5003;35601;55.902;13.606;2024-03-22T02:13:17;23;16;
49708;PMS5003;35601;55.902;13.606;2024-03-22T02:15:42;17;14;
49708;PMS5003;35601;55.902;13.606;2024-03-22T02:18:08;20;13;
49708;PMS5003;35601;55.902;13.606;2024-03-22T02:20:34;14;13;
49708;PMS5003;35601;55.902;13.606;2024-03-22T02:22:59;19;14;
49708;PMS5003;35601;55.902;13.606;2024-03-22T02:25:24;19;16;
49708;PMS5003;35601;55.902;13.606;2024-03-22T02:27:50;18;15;
49708;PMS5003;35601;55.902;13.606;2024-03-22T02:30:15;18;13;
49708;PMS5003;35601;55.902;13.606;2024-03-22T02:32:40;15;14;
49708;PMS5003;35601;55.902;13.606;2024-03-22T02:35:06;19;14;
49708;PMS5003;35601;55.902;13.606;2024-03-22T02:37:32;20;15;
49708;PMS5003;35601;55.902;13.606;2024-03-22T02:39:57;19;17;
49708;PMS5003;35601;55.902;13.606;2024-03-22T02:42:23;19;13;
49708;PMS5003;35601;55.902;13.606;2024-03-22T02:44:48;17;15;
49708;PMS5003;35601;55.902;13.606;2024-03-22T02:47:14;16;16;
49708;PMS5003;35601;55.902;13.606;2024-03-22T02:49:40;19;14;
49708;PMS5003;35601;55.902;13.606;2024-03-22T02:52:05;14;13;
49708;PMS5003;35601;55.902;13.606;2024-03-22T02:54:31;17;14;
49708;PMS5003;35601;55.902;13.606;2024-03-22T02:56:56;17;16;
49708;PMS5003;35601;55.902;13.606;2024-03-22T02:59:21;14;12;
49708;PMS5003;35601;55.902;13.606;2024-03-22T03:01:47;21;16;
49708;PMS5003;35601;55.902;13.606;2024-03-22T03:04:13;18;16;
49708;PMS5003;35601;55.902;13.606;2024-03-22T03:06:38;15;14;
49708;PMS5003;35601;55.902;13.606;2024-03-22T03:09:04;13;13;
49708;PMS5003;35601;55.902;13.606;2024-03-22T03:11:29;12;10;
49708;PMS5003;35601;55.902;13.606;2024-03-22T03:13:54;11;11;
49708;PMS5003;35601;55.902;13.606;2024-03-22T03:16:20;16;14;
49708;PMS5003;35601;55.902;13.606;2024-03-22T03:18:46;20;13;
49708;PMS5003;35601;55.902;13.606;2024-03-22T03:21:12;17;13;
49708;PMS5003;35601;55.902;13.606;2024-03-22T03:23:37;20;16;
49708;PMS5003;35601;55.902;13.606;2024-03-22T03:26:03;19;16;
49708;PMS5003;35601;55.902;13.606;2024-03-22T03:28:28;18;15;
49708;PMS5003;35601;55.902;13.606;2024-03-22T03:30:53;21;16;
49708;PMS5003;35601;55.902;13.606;2024-03-22T03:33:18;17;15;
49708;PMS5003;35601;55.902;13.606;2024-03-22T03:35:45;24;19;
49708;PMS5003;35601;55.902;13.606;2024-03-22T03:38:08;20;18;
49708;PMS5003;35601;55.902;13.606;2024-03-22T03:40:34;23;21;
49708;PMS5003;35601;55.902;13.606;2024-03-22T03:42:59;27;24;
49708;PMS5003;35601;55.902;13.606;2024-03-22T03:45:25;35;28;
49708;PMS5003;35601;55.902;13.606;2024-03-22T03:47:50;30;25;
49708;PMS5003;35601;55.902;13.606;2024-03-22T03:50:16;21;19;
49708;PMS5003;35601;55.902;13.606;2024-03-22T03:52:42;21;20;
49708;PMS5003;35601;55.902;13.606;2024-03-22T03:55:07;35;29;
49708;PMS5003;35601;55.902;13.606;2024-03-22T03:57:33;25;23;
49708;PMS5003;35601;55.902;13.606;2024-03-22T03:59:58;33;26;
49708;PMS5003;35601;55.902;13.606;2024-03-22T04:02:23;23;19;
49708;PMS5003;35601;55.902;13.606;2024-03-22T04:04:51;35;28;
49708;PMS5003;35601;55.902;13.606;2024-03-22T04:07:14;25;24;
49708;PMS5003;35601;55.902;13.606;2024-03-22T04:09:40;27;23;
49708;PMS5003;35601;55.902;13.606;2024-03-22T04:12:05;29;26;
49708;PMS5003;35601;55.902;13.606;2024-03-22T04:14:30;26;22;
49708;PMS5003;35601;55.902;13.606;2024-03-22T04:16:56;25;22;
49708;PMS5003;35601;55.902;13.606;2024-03-22T04:19:22;26;21;
49708;PMS5003;35601;55.902;13.606;2024-03-22T04:21:47;30;23;
49708;PMS5003;35601;55.902;13.606;2024-03-22T04:24:13;36;31;
49708;PMS5003;35601;55.902;13.606;2024-03-22T04:26:38;29;23;
49708;PMS5003;35601;55.902;13.606;2024-03-22T04:29:03;19;19;
49708;PMS5003;35601;55.902;13.606;2024-03-22T04:31:29;32;27;
49708;PMS5003;35601;55.902;13.606;2024-03-22T04:33:54;27;23;
49708;PMS5003;35601;55.902;13.606;2024-03-22T04:36:19;31;25;
49708;PMS5003;35601;55.902;13.606;2024-03-22T04:38:45;37;29;
49708;PMS5003;35601;55.902;13.606;2024-03-22T04:41:10;40;32;
49708;PMS5003;35601;55.902;13.606;2024-03-22T04:43:36;28;23;
49708;PMS5003;35601;55.902;13.606;2024-03-22T04:46:01;49;37;
49708;PMS5003;35601;55.902;13.606;2024-03-22T04:48:27;34;27;
49708;PMS5003;35601;55.902;13.606;2024-03-22T04:50:53;33;27;
49708;PMS5003;35601;55.902;13.606;2024-03-22T04:53:18;33;27;
49708;PMS5003;35601;55.902;13.606;2024-03-22T04:55:44;36;32;
49708;PMS5003;35601;55.902;13.606;2024-03-22T04:58:09;37;26;
49708;PMS5003;35601;55.902;13.606;2024-03-22T05:00:34;47;41;
49708;PMS5003;35601;55.902;13.606;2024-03-22T05:03:00;37;33;
49708;PMS5003;35601;55.902;13.606;2024-03-22T05:05:26;36;32;
49708;PMS5003;35601;55.902;13.606;2024-03-22T05:07:51;38;31;
49708;PMS5003;35601;55.902;13.606;2024-03-22T05:10:16;48;38;
49708;PMS5003;35601;55.902;13.606;2024-03-22T05:12:41;42;38;
49708;PMS5003;35601;55.902;13.606;2024-03-22T05:15:07;47;40;
49708;PMS5003;35601;55.902;13.606;2024-03-22T05:17:32;48;35;
49708;PMS5003;35601;55.902;13.606;2024-03-22T05:19:58;35;31;
49708;PMS5003;35601;55.902;13.606;2024-03-22T05:22:23;47;36;
49708;PMS5003;35601;55.902;13.606;2024-03-22T05:24:49;36;28;
49708;PMS5003;35601;55.902;13.606;2024-03-22T05:27:14;42;33;
49708;PMS5003;35601;55.902;13.606;2024-03-22T05:29:40;37;30;
49708;PMS5003;35601;55.902;13.606;2024-03-22T05:32:05;34;33;
49708;PMS5003;35601;55.902;13.606;2024-03-22T05:34:31;33;32;
49708;PMS5003;35601;55.902;13.606;2024-03-22T05:36:56;43;36;
49708;PMS5003;35601;55.902;13.606;2024-03-22T05:39:21;56;43;
49708;PMS5003;35601;55.902;13.606;2024-03-22T05:41:46;48;41;
49708;PMS5003;35601;55.902;13.606;2024-03-22T05:44:11;52;39;
49708;PMS5003;35601;55.902;13.606;2024-03-22T05:46:37;53;44;
49708;PMS5003;35601;55.902;13.606;2024-03-22T05:49:02;40;37;
49708;PMS5003;35601;55.902;13.606;2024-03-22T05:51:27;52;44;
49708;PMS5003;35601;55.902;13.606;2024-03-22T05:53:53;56;45;
49708;PMS5003;35601;55.902;13.606;2024-03-22T05:56:19;56;45;
49708;PMS5003;35601;55.902;13.606;2024-03-22T05:58:43;48;38;
49708;PMS5003;35601;55.902;13.606;2024-03-22T06:01:08;51;46;
49708;PMS5003;35601;55.902;13.606;2024-03-22T06:03:35;49;43;
49708;PMS5003;35601;55.902;13.606;2024-03-22T06:05:59;54;45;
49708;PMS5003;35601;55.902;13.606;2024-03-22T06:08:25;48;39;
49708;PMS5003;35601;55.902;13.606;2024-03-22T06:10:50;61;50;
49708;PMS5003;35601;55.902;13.606;2024-03-22T06:13:16;65;49;
49708;PMS5003;35601;55.902;13.606;2024-03-22T06:15:43;62;48;
49708;PMS5003;35601;55.902;13.606;2024-03-22T06:18:08;51;41;
49708;PMS5003;35601;55.902;13.606;2024-03-22T06:20:33;52;45;
49708;PMS5003;35601;55.902;13.606;2024-03-22T06:22:58;64;53;
49708;PMS5003;35601;55.902;13.606;2024-03-22T06:25:23;48;42;
49708;PMS5003;35601;55.902;13.606;2024-03-22T06:27:49;51;48;
49708;PMS5003;35601;55.902;13.606;2024-03-22T06:30:15;49;42;
49708;PMS5003;35601;55.902;13.606;2024-03-22T06:32:40;46;40;
49708;PMS5003;35601;55.902;13.606;2024-03-22T06:35:06;49;40;
49708;PMS5003;35601;55.902;13.606;2024-03-22T06:37:31;46;42;
49708;PMS5003;35601;55.902;13.606;2024-03-22T06:39:56;42;40;
49708;PMS5003;35601;55.902;13.606;2024-03-22T06:42:22;41;38;
49708;PMS5003;35601;55.902;13.606;2024-03-22T06:44:47;39;33;
49708;PMS5003;35601;55.902;13.606;2024-03-22T06:47:13;35;33;
49708;PMS5003;35601;55.902;13.606;2024-03-22T06:49:38;40;35;
49708;PMS5003;35601;55.902;13.606;2024-03-22T06:52:04;30;30;
49708;PMS5003;35601;55.902;13.606;2024-03-22T06:54:28;35;32;
49708;PMS5003;35601;55.902;13.606;2024-03-22T06:56:54;34;31;
49708;PMS5003;35601;55.902;13.606;2024-03-22T06:59:19;33;28;
49708;PMS5003;35601;55.902;13.606;2024-03-22T07:01:45;33;28;
49708;PMS5003;35601;55.902;13.606;2024-03-22T07:04:10;37;32;
49708;PMS5003;35601;55.902;13.606;2024-03-22T07:06:35;37;31;
49708;PMS5003;35601;55.902;13.606;2024-03-22T07:09:01;42;38;
49708;PMS5003;35601;55.902;13.606;2024-03-22T07:11:26;34;29;
49708;PMS5003;35601;55.902;13.606;2024-03-22T07:13:52;36;27;
49708;PMS5003;35601;55.902;13.606;2024-03-22T07:16:18;41;32;
49708;PMS5003;35601;55.902;13.606;2024-03-22T07:18:42;37;32;
49708;PMS5003;35601;55.902;13.606;2024-03-22T07:21:07;35;32;
49708;PMS5003;35601;55.902;13.606;2024-03-22T07:23:33;38;34;
49708;PMS5003;35601;55.902;13.606;2024-03-22T07:25:58;39;36;
49708;PMS5003;35601;55.902;13.606;2024-03-22T07:28:24;34;32;
49708;PMS5003;35601;55.902;13.606;2024-03-22T07:30:49;37;30;
49708;PMS5003;35601;55.902;13.606;2024-03-22T07:33:15;42;38;
49708;PMS5003;35601;55.902;13.606;2024-03-22T07:35:40;34;30;
49708;PMS5003;35601;55.902;13.606;2024-03-22T07:38:06;35;33;
49708;PMS5003;35601;55.902;13.606;2024-03-22T07:40:31;33;28;
49708;PMS5003;35601;55.902;13.606;2024-03-22T07:42:56;32;28;
49708;PMS5003;35601;55.902;13.606;2024-03-22T07:45:22;45;38;
49708;PMS5003;35601;55.902;13.606;2024-03-22T07:47:47;36;31;
49708;PMS5003;35601;55.902;13.606;2024-03-22T07:50:13;34;31;
49708;PMS5003;35601;55.902;13.606;2024-03-22T07:52:38;27;23;
49708;PMS5003;35601;55.902;13.606;2024-03-22T07:55:03;38;31;
49708;PMS5003;35601;55.902;13.606;2024-03-22T07:57:28;32;29;
49708;PMS5003;35601;55.902;13.606;2024-03-22T07:59:54;35;30;
49708;PMS5003;35601;55.902;13.606;2024-03-22T08:02:19;31;30;
49708;PMS5003;35601;55.902;13.606;2024-03-22T08:04:45;42;33;
49708;PMS5003;35601;55.902;13.606;2024-03-22T08:07:10;30;28;
49708;PMS5003;35601;55.902;13.606;2024-03-22T08:09:36;39;32;
49708;PMS5003;35601;55.902;13.606;2024-03-22T08:12:02;35;33;
49708;PMS5003;35601;55.902;13.606;2024-03-22T08:14:27;36;31;
49708;PMS5003;35601;55.902;13.606;2024-03-22T08:16:53;41;37;
49708;PMS5003;35601;55.902;13.606;2024-03-22T08:19:19;40;37;
49708;PMS5003;35601;55.902;13.606;2024-03-22T08:21:44;42;34;
49708;PMS5003;35601;55.902;13.606;2024-03-22T08:24:10;35;35;
49708;PMS5003;35601;55.902;13.606;2024-03-22T08:26:36;47;38;
49708;PMS5003;35601;55.902;13.606;2024-03-22T08:29:01;42;39;
49708;PMS5003;35601;55.902;13.606;2024-03-22T08:31:27;39;37;
49708;PMS5003;35601;55.902;13.606;2024-03-22T08:33:52;36;31;
49708;PMS5003;35601;55.902;13.606;2024-03-22T08:36:18;42;36;
49708;PMS5003;35601;55.902;13.606;2024-03-22T08:38:43;39;36;
49708;PMS5003;35601;55.902;13.606;2024-03-22T08:41:08;41;38;
49708;PMS5003;35601;55.902;13.606;2024-03-22T08:43:34;45;42;
49708;PMS5003;35601;55.902;13.606;2024-03-22T08:45:59;53;43;
49708;PMS5003;35601;55.902;13.606;2024-03-22T08:48:25;49;39;
49708;PMS5003;35601;55.902;13.606;2024-03-22T08:50:51;48;43;
49708;PMS5003;35601;55.902;13.606;2024-03-22T08:53:16;46;42;
49708;PMS5003;35601;55.902;13.606;2024-03-22T08:55:45;43;39;
49708;PMS5003;35601;55.902;13.606;2024-03-22T08:58:06;44;39;
49708;PMS5003;35601;55.902;13.606;2024-03-22T09:00:32;42;39;
49708;PMS5003;35601;55.902;13.606;2024-03-22T09:02:57;57;42;
49708;PMS5003;35601;55.902;13.606;2024-03-22T09:05:23;54;52;
49708;PMS5003;35601;55.902;13.606;2024-03-22T09:07:49;51;42;
49708;PMS5003;35601;55.902;13.606;2024-03-22T09:10:14;63;55;
49708;PMS5003;35601;55.902;13.606;2024-03-22T09:12:39;70;59;
49708;PMS5003;35601;55.902;13.606;2024-03-22T09:15:05;55;48;
49708;PMS5003;35601;55.902;13.606;2024-03-22T09:17:30;58;55;
49708;PMS5003;35601;55.902;13.606;2024-03-22T09:19:56;58;50;
49708;PMS5003;35601;55.902;13.606;2024-03-22T09:22:21;60;51;
49708;PMS5003;35601;55.902;13.606;2024-03-22T09:24:46;58;47;
49708;PMS5003;35601;55.902;13.606;2024-03-22T09:27:12;56;53;
49708;PMS5003;35601;55.902;13.606;2024-03-22T09:29:37;59;52;
49708;PMS5003;35601;55.902;13.606;2024-03-22T09:32:03;56;50;
49708;PMS5003;35601;55.902;13.606;2024-03-22T09:34:28;49;45;
49708;PMS5003;35601;55.902;13.606;2024-03-22T09:36:53;54;47;
49708;PMS5003;35601;55.902;13.606;2024-03-22T09:39:18;62;53;
49708;PMS5003;35601;55.902;13.606;2024-03-22T09:41:44;59;48;
49708;PMS5003;35601;55.902;13.606;2024-03-22T09:44:11;64;56;
49708;PMS5003;35601;55.902;13.606;2024-03-22T09:46:35;70;58;
49708;PMS5003;35601;55.902;13.606;2024-03-22T09:49:01;52;47;
49708;PMS5003;35601;55.902;13.606;2024-03-22T09:51:26;57;49;
49708;PMS5003;35601;55.902;13.606;2024-03-22T09:53:51;59;50;
49708;PMS5003;35601;55.902;13.606;2024-03-22T09:56:17;54;47;
49708;PMS5003;35601;55.902;13.606;2024-03-22T09:58:43;50;46;
49708;PMS5003;35601;55.902;13.606;2024-03-22T10:01:08;58;50;
49708;PMS5003;35601;55.902;13.606;2024-03-22T10:03:34;61;51;
49708;PMS5003;35601;55.902;13.606;2024-03-22T10:06:00;59;49;
49708;PMS5003;35601;55.902;13.606;2024-03-22T10:08:26;48;42;
49708;PMS5003;35601;55.902;13.606;2024-03-22T10:10:51;52;52;
49708;PMS5003;35601;55.902;13.606;2024-03-22T10:13:16;53;44;
49708;PMS5003;35601;55.902;13.606;2024-03-22T10:15:42;52;48;
49708;PMS5003;35601;55.902;13.606;2024-03-22T10:18:09;56;50;
49708;PMS5003;35601;55.902;13.606;2024-03-22T10:20:33;54;43;
49708;PMS5003;35601;55.902;13.606;2024-03-22T10:22:59;46;41;
49708;PMS5003;35601;55.902;13.606;2024-03-22T10:25:25;43;40;
49708;PMS5003;35601;55.902;13.606;2024-03-22T10:27:50;45;40;
49708;PMS5003;35601;55.902;13.606;2024-03-22T10:30:16;46;40;
49708;PMS5003;35601;55.902;13.606;2024-03-22T10:32:41;54;45;
49708;PMS5003;35601;55.902;13.606;2024-03-22T10:35:07;50;44;
49708;PMS5003;35601;55.902;13.606;2024-03-22T10:37:33;41;39;
49708;PMS5003;35601;55.902;13.606;2024-03-22T10:39:58;42;37;
49708;PMS5003;35601;55.902;13.606;2024-03-22T10:42:24;46;38;
49708;PMS5003;35601;55.902;13.606;2024-03-22T10:44:49;47;43;
49708;PMS5003;35601;55.902;13.606;2024-03-22T10:47:15;40;38;
49708;PMS5003;35601;55.902;13.606;2024-03-22T10:49:40;41;34;
49708;PMS5003;35601;55.902;13.606;2024-03-22T10:52:06;45;39;
49708;PMS5003;35601;55.902;13.606;2024-03-22T10:54:33;52;41;
49708;PMS5003;35601;55.902;13.606;2024-03-22T10:56:57;40;37;
49708;PMS5003;35601;55.902;13.606;2024-03-22T10:59:23;38;36;
49708;PMS5003;35601;55.902;13.606;2024-03-22T11:01:48;46;41;
49708;PMS5003;35601;55.902;13.606;2024-03-22T11:04:15;46;38;
49708;PMS5003;35601;55.902;13.606;2024-03-22T11:06:39;42;36;
49708;PMS5003;35601;55.902;13.606;2024-03-22T11:09:04;42;37;
49708;PMS5003;35601;55.902;13.606;2024-03-22T11:11:29;50;38;
49708;PMS5003;35601;55.902;13.606;2024-03-22T11:13:55;43;38;
49708;PMS5003;35601;55.902;13.606;2024-03-22T11:16:21;31;30;
49708;PMS5003;35601;55.902;13.606;2024-03-22T11:18:46;41;37;
49708;PMS5003;35601;55.902;13.606;2024-03-22T11:21:12;40;36;
49708;PMS5003;35601;55.902;13.606;2024-03-22T11:23:37;38;36;
49708;PMS5003;35601;55.902;13.606;2024-03-22T11:26:02;37;34;
49708;PMS5003;35601;55.902;13.606;2024-03-22T11:28:27;43;39;
49708;PMS5003;35601;55.902;13.606;2024-03-22T11:30:52;42;37;
49708;PMS5003;35601;55.902;13.606;2024-03-22T11:33:18;38;31;
49708;PMS5003;35601;55.902;13.606;2024-03-22T11:35:43;42;36;
49708;PMS5003;35601;55.902;13.606;2024-03-22T11:38:09;44;34;
49708;PMS5003;35601;55.902;13.606;2024-03-22T11:40:35;34;30;
49708;PMS5003;35601;55.902;13.606;2024-03-22T11:43:00;44;39;
49708;PMS5003;35601;55.902;13.606;2024-03-22T11:45:25;38;32;
49708;PMS5003;35601;55.902;13.606;2024-03-22T11:47:51;46;38;
49708;PMS5003;35601;55.902;13.606;2024-03-22T11:50:16;30;27;
49708;PMS5003;35601;55.902;13.606;2024-03-22T11:52:42;46;39;
49708;PMS5003;35601;55.902;13.606;2024-03-22T11:55:08;41;37;
49708;PMS5003;35601;55.902;13.606;2024-03-22T11:57:33;44;38;
49708;PMS5003;35601;55.902;13.606;2024-03-22T11:59:59;36;34;
49708;PMS5003;35601;55.902;13.606;2024-03-22T12:02:25;42;38;
49708;PMS5003;35601;55.902;13.606;2024-03-22T12:04:50;48;41;
49708;PMS5003;35601;55.902;13.606;2024-03-22T12:07:16;48;43;
49708;PMS5003;35601;55.902;13.606;2024-03-22T12:09:40;42;35;
49708;PMS5003;35601;55.902;13.606;2024-03-22T12:12:07;42;39;
49708;PMS5003;35601;55.902;13.606;2024-03-22T12:14:32;44;39;
49708;PMS5003;35601;55.902;13.606;2024-03-22T12:16:57;47;42;
49708;PMS5003;35601;55.902;13.606;2024-03-22T12:19:23;48;40;
49708;PMS5003;35601;55.902;13.606;2024-03-22T12:21:48;40;38;
49708;PMS5003;35601;55.902;13.606;2024-03-22T12:24:13;43;36;
49708;PMS5003;35601;55.902;13.606;2024-03-22T12:26:39;34;32;
49708;PMS5003;35601;55.902;13.606;2024-03-22T12:29:04;38;37;
49708;PMS5003;35601;55.902;13.606;2024-03-22T12:31:30;47;42;
49708;PMS5003;35601;55.902;13.606;2024-03-22T12:33:56;43;34;
49708;PMS5003;35601;55.902;13.606;2024-03-22T12:36:21;42;33;
49708;PMS5003;35601;55.902;13.606;2024-03-22T12:38:46;41;38;
49708;PMS5003;35601;55.902;13.606;2024-03-22T12:41:12;40;37;
49708;PMS5003;35601;55.902;13.606;2024-03-22T12:43:38;39;35;
49708;PMS5003;35601;55.902;13.606;2024-03-22T12:46:03;36;35;
49708;PMS5003;35601;55.902;13.606;2024-03-22T12:48:29;44;39;
49708;PMS5003;35601;55.902;13.606;2024-03-22T12:50:55;39;34;
49708;PMS5003;35601;55.902;13.606;2024-03-22T12:53:20;40;35;
49708;PMS5003;35601;55.902;13.606;2024-03-22T12:55:45;42;36;
49708;PMS5003;35601;55.902;13.606;2024-03-22T12:58:10;35;33;
49708;PMS5003;35601;55.902;13.606;2024-03-22T13:00:36;32;30;
49708;PMS5003;35601;55.902;13.606;2024-03-22T13:03:02;39;33;
49708;PMS5003;35601;55.902;13.606;2024-03-22T13:05:27;31;31;
49708;PMS5003;35601;55.902;13.606;2024-03-22T13:07:53;41;36;
49708;PMS5003;35601;55.902;13.606;2024-03-22T13:10:19;35;35;
49708;PMS5003;35601;55.902;13.606;2024-03-22T13:12:44;31;29;
49708;PMS5003;35601;55.902;13.606;2024-03-22T13:15:10;42;40;
49708;PMS5003;35601;55.902;13.606;2024-03-22T13:17:35;30;29;
49708;PMS5003;35601;55.902;13.606;2024-03-22T13:20:00;33;29;
49708;PMS5003;35601;55.902;13.606;2024-03-22T13:22:26;201;173;
49708;PMS5003;35601;55.902;13.606;2024-03-22T13:24:52;32;30;
49708;PMS5003;35601;55.902;13.606;2024-03-22T13:27:18;34;31;
49708;PMS5003;35601;55.902;13.606;2024-03-22T13:29:43;34;28;
49708;PMS5003;35601;55.902;13.606;2024-03-22T13:32:08;31;27;
49708;PMS5003;35601;55.902;13.606;2024-03-22T13:34:34;35;32;
49708;PMS5003;35601;55.902;13.606;2024-03-22T13:36:59;32;27;
49708;PMS5003;35601;55.902;13.606;2024-03-22T13:39:25;35;32;
49708;PMS5003;35601;55.902;13.606;2024-03-22T13:41:50;32;28;
49708;PMS5003;35601;55.902;13.606;2024-03-22T13:44:16;30;27;
49708;PMS5003;35601;55.902;13.606;2024-03-22T13:46:42;27;24;
49708;PMS5003;35601;55.902;13.606;2024-03-22T13:49:12;30;25;
49708;PMS5003;35601;55.902;13.606;2024-03-22T13:51:32;22;22;
49708;PMS5003;35601;55.902;13.606;2024-03-22T13:53:58;27;25;
49708;PMS5003;35601;55.902;13.606;2024-03-22T13:56:23;46;42;
49708;PMS5003;35601;55.902;13.606;2024-03-22T13:58:48;24;23;
49708;PMS5003;35601;55.902;13.606;2024-03-22T14:01:14;14;14;
49708;PMS5003;35601;55.902;13.606;2024-03-22T14:03:40;14;14;
49708;PMS5003;35601;55.902;13.606;2024-03-22T14:06:05;15;14;
49708;PMS5003;35601;55.902;13.606;2024-03-22T14:08:31;15;11;
49708;PMS5003;35601;55.902;13.606;2024-03-22T14:10:56;11;10;
49708;PMS5003;35601;55.902;13.606;2024-03-22T14:13:22;8;7;
49708;PMS5003;35601;55.902;13.606;2024-03-22T14:15:47;11;8;
49708;PMS5003;35601;55.902;13.606;2024-03-22T14:18:12;5;5;
49708;PMS5003;35601;55.902;13.606;2024-03-22T14:20:38;9;9;
49708;PMS5003;35601;55.902;13.606;2024-03-22T14:23:03;5;5;
49708;PMS5003;35601;55.902;13.606;2024-03-22T14:25:29;8;6;
49708;PMS5003;35601;55.902;13.606;2024-03-22T14:27:54;5;5;
49708;PMS5003;35601;55.902;13.606;2024-03-22T14:30:19;8;7;
49708;PMS5003;35601;55.902;13.606;2024-03-22T14:32:44;12;7;
49708;PMS5003;35601;55.902;13.606;2024-03-22T14:35:10;8;5;
49708;PMS5003;35601;55.902;13.606;2024-03-22T14:37:35;7;4;
49708;PMS5003;35601;55.902;13.606;2024-03-22T14:40:01;6;6;
49708;PMS5003;35601;55.902;13.606;2024-03-22T14:42:26;6;4;
49708;PMS5003;35601;55.902;13.606;2024-03-22T14:44:51;6;5;
49708;PMS5003;35601;55.902;13.606;2024-03-22T14:47:16;7;6;
49708;PMS5003;35601;55.902;13.606;2024-03-22T14:49:41;7;5;
49708;PMS5003;35601;55.902;13.606;2024-03-22T14:52:08;8;6;
49708;PMS5003;35601;55.902;13.606;2024-03-22T14:54:32;5;5;
49708;PMS5003;35601;55.902;13.606;2024-03-22T14:56:58;11;8;
49708;PMS5003;35601;55.902;13.606;2024-03-22T14:59:26;9;4;
49708;PMS5003;35601;55.902;13.606;2024-03-22T15:01:48;8;6;
49708;PMS5003;35601;55.902;13.606;2024-03-22T15:04:14;8;4;
49708;PMS5003;35601;55.902;13.606;2024-03-22T15:06:39;8;6;
49708;PMS5003;35601;55.902;13.606;2024-03-22T15:09:04;9;8;
49708;PMS5003;35601;55.902;13.606;2024-03-22T15:11:29;6;6;
49708;PMS5003;35601;55.902;13.606;2024-03-22T15:13:55;16;12;
49708;PMS5003;35601;55.902;13.606;2024-03-22T15:16:20;8;6;
49708;PMS5003;35601;55.902;13.606;2024-03-22T15:18:45;11;6;
49708;PMS5003;35601;55.902;13.606;2024-03-22T15:21:10;12;9;
49708;PMS5003;35601;55.902;13.606;2024-03-22T15:23:35;10;8;
49708;PMS5003;35601;55.902;13.606;2024-03-22T15:26:01;14;9;
49708;PMS5003;35601;55.902;13.606;2024-03-22T15:28:26;9;7;
49708;PMS5003;35601;55.902;13.606;2024-03-22T15:30:51;9;8;
49708;PMS5003;35601;55.902;13.606;2024-03-22T15:33:17;10;8;
49708;PMS5003;35601;55.902;13.606;2024-03-22T15:35:42;10;8;
49708;PMS5003;35601;55.902;13.606;2024-03-22T15:38:07;12;7;
49708;PMS5003;35601;55.902;13.606;2024-03-22T15:40:33;13;10;
49708;PMS5003;35601;55.902;13.606;2024-03-22T15:42:58;12;9;
49708;PMS5003;35601;55.902;13.606;2024-03-22T15:45:24;11;7;
49708;PMS5003;35601;55.902;13.606;2024-03-22T15:47:49;19;10;
49708;PMS5003;35601;55.902;13.606;2024-03-22T15:50:14;10;5;
49708;PMS5003;35601;55.902;13.606;2024-03-22T15:52:40;8;7;